sensor_id;sensor_type;location;lat;lon;timestamp;temperature;humidity
24448;DHT22;13348;50.984;5.822;2022-10-03T00:00:41;9.30;99.90
24448;DHT22;13348;50.984;5.822;2022-10-03T00:03:33;9.20;99.90
24448;DHT22;13348;50.984;5.822;2022-10-03T00:06:10;9.20;99.90
24448;DHT22;13348;50.984;5.822;2022-10-03T00:09:02;9.20;99.90
24448;DHT22;13348;50.984;5.822;2022-10-03T00:11:42;9.30;99.90
24448;DHT22;13348;50.984;5.822;2022-10-03T00:14:16;9.20;99.90
24448;DHT22;13348;50.984;5.822;2022-10-03T00:16:48;9.20;99.90
24448;DHT22;13348;50.984;5.822;2022-10-03T00:19:26;9.20;99.90
24448;DHT22;13348;50.984;5.822;2022-10-03T00:22:05;9.30;99.90
24448;DHT22;13348;50.984;5.822;2022-10-03T00:24:43;9.30;99.90
24448;DHT22;13348;50.984;5.822;2022-10-03T00:27:24;9.40;99.90
24448;DHT22;13348;50.984;5.822;2022-10-03T00:30:12;9.40;99.90
24448;DHT22;13348;50.984;5.822;2022-10-03T00:32:59;9.40;99.90
24448;DHT22;13348;50.984;5.822;2022-10-03T00:35:46;9.40;99.90
24448;DHT22;13348;50.984;5.822;2022-10-03T00:38:46;9.40;99.90
24448;DHT22;13348;50.984;5.822;2022-10-03T00:41:50;9.30;99.90
24448;DHT22;13348;50.984;5.822;2022-10-03T00:50:48;9.20;99.90
24448;DHT22;13348;50.984;5.822;2022-10-03T00:53:35;9.20;99.90
24448;DHT22;13348;50.984;5.822;2022-10-03T00:56:31;9.20;99.90
24448;DHT22;13348;50.984;5.822;2022-10-03T00:59:14;9.20;99.90
24448;DHT22;13348;50.984;5.822;2022-10-03T01:01:45;9.20;99.90
24448;DHT22;13348;50.984;5.822;2022-10-03T01:04:35;9.20;99.90
24448;DHT22;13348;50.984;5.822;2022-10-03T01:07:20;9.20;99.90
24448;DHT22;13348;50.984;5.822;2022-10-03T01:10:02;9.20;99.90
24448;DHT22;13348;50.984;5.822;2022-10-03T01:12:59;9.20;99.90
24448;DHT22;13348;50.984;5.822;2022-10-03T01:15:39;9.20;99.90
24448;DHT22;13348;50.984;5.822;2022-10-03T01:18:16;9.20;99.90
24448;DHT22;13348;50.984;5.822;2022-10-03T01:20:52;9.20;99.90
24448;DHT22;13348;50.984;5.822;2022-10-03T01:23:46;9.20;99.90
24448;DHT22;13348;50.984;5.822;2022-10-03T01:26:51;9.10;99.90
24448;DHT22;13348;50.984;5.822;2022-10-03T01:29:25;9.20;99.90
24448;DHT22;13348;50.984;5.822;2022-10-03T01:32:14;9.20;99.90
24448;DHT22;13348;50.984;5.822;2022-10-03T01:34:47;9.20;99.90
24448;DHT22;13348;50.984;5.822;2022-10-03T01:37:26;9.10;99.90
24448;DHT22;13348;50.984;5.822;2022-10-03T01:39:59;9.10;99.90
24448;DHT22;13348;50.984;5.822;2022-10-03T01:42:38;9.00;99.90
24448;DHT22;13348;50.984;5.822;2022-10-03T01:45:22;9.10;99.90
24448;DHT22;13348;50.984;5.822;2022-10-03T01:47:55;9.10;99.90
24448;DHT22;13348;50.984;5.822;2022-10-03T01:50:31;9.00;99.90
24448;DHT22;13348;50.984;5.822;2022-10-03T01:53:07;9.00;99.90
24448;DHT22;13348;50.984;5.822;2022-10-03T01:55:48;9.00;99.90
24448;DHT22;13348;50.984;5.822;2022-10-03T01:58:26;9.00;99.90
24448;DHT22;13348;50.984;5.822;2022-10-03T02:01:03;9.00;99.90
24448;DHT22;13348;50.984;5.822;2022-10-03T02:03:36;8.90;99.90
24448;DHT22;13348;50.984;5.822;2022-10-03T02:06:08;8.90;99.90
24448;DHT22;13348;50.984;5.822;2022-10-03T02:08:46;9.00;99.90
24448;DHT22;13348;50.984;5.822;2022-10-03T02:11:26;8.90;99.90
24448;DHT22;13348;50.984;5.822;2022-10-03T02:13:58;8.90;99.90
24448;DHT22;13348;50.984;5.822;2022-10-03T02:16:38;8.90;99.90
24448;DHT22;13348;50.984;5.822;2022-10-03T02:19:15;8.90;99.90
24448;DHT22;13348;50.984;5.822;2022-10-03T02:21:47;8.90;99.90
24448;DHT22;13348;50.984;5.822;2022-10-03T02:24:23;8.80;99.90
24448;DHT22;13348;50.984;5.822;2022-10-03T02:30:14;8.90;99.90
24448;DHT22;13348;50.984;5.822;2022-10-03T02:46:06;9.00;99.90
24448;DHT22;13348;50.984;5.822;2022-10-03T02:49:03;9.10;99.90
24448;DHT22;13348;50.984;5.822;2022-10-03T02:52:03;9.20;99.90
24448;DHT22;13348;50.984;5.822;2022-10-03T03:00:19;9.10;99.90
24448;DHT22;13348;50.984;5.822;2022-10-03T03:09:32;9.00;99.90
24448;DHT22;13348;50.984;5.822;2022-10-03T03:12:37;9.10;99.90
24448;DHT22;13348;50.984;5.822;2022-10-03T03:15:42;9.10;99.90
24448;DHT22;13348;50.984;5.822;2022-10-03T03:18:20;9.10;99.90
24448;DHT22;13348;50.984;5.822;2022-10-03T03:21:00;9.10;99.90
24448;DHT22;13348;50.984;5.822;2022-10-03T03:23:55;9.10;99.90
24448;DHT22;13348;50.984;5.822;2022-10-03T03:26:50;9.10;99.90
24448;DHT22;13348;50.984;5.822;2022-10-03T03:29:30;9.00;99.90
24448;DHT22;13348;50.984;5.822;2022-10-03T03:32:06;9.00;99.90
24448;DHT22;13348;50.984;5.822;2022-10-03T03:34:43;9.00;99.90
24448;DHT22;13348;50.984;5.822;2022-10-03T03:37:19;9.00;99.90
24448;DHT22;13348;50.984;5.822;2022-10-03T03:40:06;9.00;99.90
24448;DHT22;13348;50.984;5.822;2022-10-03T03:43:09;8.90;99.90
24448;DHT22;13348;50.984;5.822;2022-10-03T03:45:47;8.90;99.90
24448;DHT22;13348;50.984;5.822;2022-10-03T03:48:36;8.90;99.90
24448;DHT22;13348;50.984;5.822;2022-10-03T03:51:19;8.80;99.90
24448;DHT22;13348;50.984;5.822;2022-10-03T03:54:13;8.90;99.90
24448;DHT22;13348;50.984;5.822;2022-10-03T03:57:05;8.90;99.90
24448;DHT22;13348;50.984;5.822;2022-10-03T03:59:47;8.90;99.90
24448;DHT22;13348;50.984;5.822;2022-10-03T04:02:33;8.90;99.90
24448;DHT22;13348;50.984;5.822;2022-10-03T04:05:13;8.80;99.90
24448;DHT22;13348;50.984;5.822;2022-10-03T04:07:58;8.80;99.90
24448;DHT22;13348;50.984;5.822;2022-10-03T04:10:39;8.80;99.90
24448;DHT22;13348;50.984;5.822;2022-10-03T04:13:32;8.70;99.90
24448;DHT22;13348;50.984;5.822;2022-10-03T04:19:23;8.70;99.90
24448;DHT22;13348;50.984;5.822;2022-10-03T04:22:13;8.80;99.90
24448;DHT22;13348;50.984;5.822;2022-10-03T04:25:08;8.80;99.90
24448;DHT22;13348;50.984;5.822;2022-10-03T04:28:03;8.80;99.90
24448;DHT22;13348;50.984;5.822;2022-10-03T04:30:39;8.90;99.90
24448;DHT22;13348;50.984;5.822;2022-10-03T04:33:21;9.00;99.90
24448;DHT22;13348;50.984;5.822;2022-10-03T04:38:55;9.10;99.90
24448;DHT22;13348;50.984;5.822;2022-10-03T04:41:31;9.00;99.90
24448;DHT22;13348;50.984;5.822;2022-10-03T04:44:10;9.00;99.90
24448;DHT22;13348;50.984;5.822;2022-10-03T04:46:45;9.10;99.90
24448;DHT22;13348;50.984;5.822;2022-10-03T04:49:22;9.10;99.90
24448;DHT22;13348;50.984;5.822;2022-10-03T04:51:56;9.20;99.90
24448;DHT22;13348;50.984;5.822;2022-10-03T04:54:31;9.20;99.90
24448;DHT22;13348;50.984;5.822;2022-10-03T04:57:09;9.10;99.90
24448;DHT22;13348;50.984;5.822;2022-10-03T04:59:46;9.10;99.90
24448;DHT22;13348;50.984;5.822;2022-10-03T05:02:40;9.10;99.90
24448;DHT22;13348;50.984;5.822;2022-10-03T05:05:34;9.10;99.90
24448;DHT22;13348;50.984;5.822;2022-10-03T05:08:18;9.00;99.90
24448;DHT22;13348;50.984;5.822;2022-10-03T05:10:59;8.90;99.90
24448;DHT22;13348;50.984;5.822;2022-10-03T05:13:43;8.90;99.90
24448;DHT22;13348;50.984;5.822;2022-10-03T05:16:20;8.90;99.90
24448;DHT22;13348;50.984;5.822;2022-10-03T05:18:52;8.80;99.90
24448;DHT22;13348;50.984;5.822;2022-10-03T05:21:31;8.80;99.90
24448;DHT22;13348;50.984;5.822;2022-10-03T05:24:05;8.70;99.90
24448;DHT22;13348;50.984;5.822;2022-10-03T05:26:45;8.70;99.90
24448;DHT22;13348;50.984;5.822;2022-10-03T05:29:26;8.70;99.90
24448;DHT22;13348;50.984;5.822;2022-10-03T05:32:10;8.70;99.90
24448;DHT22;13348;50.984;5.822;2022-10-03T05:34:54;8.80;99.90
24448;DHT22;13348;50.984;5.822;2022-10-03T05:37:39;8.80;99.90
24448;DHT22;13348;50.984;5.822;2022-10-03T05:40:15;8.80;99.90
24448;DHT22;13348;50.984;5.822;2022-10-03T05:43:03;8.80;99.90
24448;DHT22;13348;50.984;5.822;2022-10-03T05:45:42;8.90;99.90
24448;DHT22;13348;50.984;5.822;2022-10-03T05:48:13;8.80;99.90
24448;DHT22;13348;50.984;5.822;2022-10-03T05:57:29;8.70;99.90
24448;DHT22;13348;50.984;5.822;2022-10-03T06:00:07;8.70;99.90
24448;DHT22;13348;50.984;5.822;2022-10-03T06:02:58;8.70;99.90
24448;DHT22;13348;50.984;5.822;2022-10-03T06:05:31;8.80;99.90
24448;DHT22;13348;50.984;5.822;2022-10-03T06:08:38;8.90;99.90
24448;DHT22;13348;50.984;5.822;2022-10-03T06:11:16;8.90;99.90
24448;DHT22;13348;50.984;5.822;2022-10-03T06:14:05;8.90;99.90
24448;DHT22;13348;50.984;5.822;2022-10-03T06:16:42;8.90;99.90
24448;DHT22;13348;50.984;5.822;2022-10-03T06:19:28;8.90;99.90
24448;DHT22;13348;50.984;5.822;2022-10-03T06:22:25;8.90;99.90
24448;DHT22;13348;50.984;5.822;2022-10-03T06:31:38;9.10;99.90
24448;DHT22;13348;50.984;5.822;2022-10-03T06:34:28;9.30;99.90
24448;DHT22;13348;50.984;5.822;2022-10-03T06:37:18;9.40;99.90
24448;DHT22;13348;50.984;5.822;2022-10-03T06:46:35;9.60;99.90
24448;DHT22;13348;50.984;5.822;2022-10-03T06:49:46;9.70;99.90
24448;DHT22;13348;50.984;5.822;2022-10-03T06:52:30;9.80;99.90
24448;DHT22;13348;50.984;5.822;2022-10-03T06:58:52;9.80;99.90
24448;DHT22;13348;50.984;5.822;2022-10-03T07:01:49;9.70;99.90
24448;DHT22;13348;50.984;5.822;2022-10-03T07:10:55;9.80;99.90
24448;DHT22;13348;50.984;5.822;2022-10-03T07:16:54;10.00;99.90
24448;DHT22;13348;50.984;5.822;2022-10-03T07:19:58;10.00;99.90
24448;DHT22;13348;50.984;5.822;2022-10-03T07:29:07;9.90;99.90
24448;DHT22;13348;50.984;5.822;2022-10-03T07:31:56;9.90;99.90
24448;DHT22;13348;50.984;5.822;2022-10-03T07:37:40;10.20;99.90
24448;DHT22;13348;50.984;5.822;2022-10-03T07:40:56;10.40;99.90
24448;DHT22;13348;50.984;5.822;2022-10-03T07:50:23;10.70;99.90
24448;DHT22;13348;50.984;5.822;2022-10-03T07:56:00;11.10;99.90
24448;DHT22;13348;50.984;5.822;2022-10-03T07:58:54;11.10;99.90
24448;DHT22;13348;50.984;5.822;2022-10-03T08:04:55;11.30;99.90
24448;DHT22;13348;50.984;5.822;2022-10-03T08:07:40;11.30;99.90
24448;DHT22;13348;50.984;5.822;2022-10-03T08:10:37;11.40;99.90
24448;DHT22;13348;50.984;5.822;2022-10-03T08:13:25;11.40;99.90
24448;DHT22;13348;50.984;5.822;2022-10-03T08:16:19;11.30;99.90
24448;DHT22;13348;50.984;5.822;2022-10-03T08:19:13;11.50;99.90
24448;DHT22;13348;50.984;5.822;2022-10-03T08:21:57;11.60;99.90
24448;DHT22;13348;50.984;5.822;2022-10-03T08:27:31;11.60;99.90
24448;DHT22;13348;50.984;5.822;2022-10-03T08:30:21;11.70;99.90
24448;DHT22;13348;50.984;5.822;2022-10-03T08:32:57;11.70;99.90
24448;DHT22;13348;50.984;5.822;2022-10-03T08:35:57;11.80;99.90
24448;DHT22;13348;50.984;5.822;2022-10-03T08:38:47;11.70;99.90
24448;DHT22;13348;50.984;5.822;2022-10-03T08:41:44;12.00;99.90
24448;DHT22;13348;50.984;5.822;2022-10-03T08:47:48;12.00;99.90
24448;DHT22;13348;50.984;5.822;2022-10-03T08:50:48;12.00;99.90
24448;DHT22;13348;50.984;5.822;2022-10-03T08:56:31;12.30;99.90
24448;DHT22;13348;50.984;5.822;2022-10-03T08:59:13;12.50;99.90
24448;DHT22;13348;50.984;5.822;2022-10-03T09:08:26;12.80;99.90
24448;DHT22;13348;50.984;5.822;2022-10-03T09:11:25;12.90;99.90
24448;DHT22;13348;50.984;5.822;2022-10-03T09:20:31;13.50;99.90
24448;DHT22;13348;50.984;5.822;2022-10-03T09:38:47;14.00;99.90
24448;DHT22;13348;50.984;5.822;2022-10-03T09:44:37;14.50;99.90
24448;DHT22;13348;50.984;5.822;2022-10-03T10:09:29;18.90;99.90
24448;DHT22;13348;50.984;5.822;2022-10-03T10:12:37;18.90;99.90
24448;DHT22;13348;50.984;5.822;2022-10-03T10:19:14;20.10;99.90
24448;DHT22;13348;50.984;5.822;2022-10-03T10:22:00;20.40;99.90
24448;DHT22;13348;50.984;5.822;2022-10-03T10:28:30;21.40;99.90
24448;DHT22;13348;50.984;5.822;2022-10-03T10:31:34;21.50;99.90
24448;DHT22;13348;50.984;5.822;2022-10-03T10:49:33;21.60;99.90
24448;DHT22;13348;50.984;5.822;2022-10-03T10:52:37;21.80;99.90
24448;DHT22;13348;50.984;5.822;2022-10-03T10:55:38;22.10;99.90
24448;DHT22;13348;50.984;5.822;2022-10-03T10:58:40;21.80;99.90
24448;DHT22;13348;50.984;5.822;2022-10-03T11:04:36;20.70;99.90
24448;DHT22;13348;50.984;5.822;2022-10-03T11:10:27;19.60;99.90
24448;DHT22;13348;50.984;5.822;2022-10-03T11:19:48;18.60;99.90
24448;DHT22;13348;50.984;5.822;2022-10-03T11:38:23;18.60;99.90
24448;DHT22;13348;50.984;5.822;2022-10-03T11:40:59;17.80;99.90
24448;DHT22;13348;50.984;5.822;2022-10-03T11:43:50;17.50;99.90
24448;DHT22;13348;50.984;5.822;2022-10-03T11:46:45;18.60;99.90
24448;DHT22;13348;50.984;5.822;2022-10-03T11:49:32;20.30;99.90
24448;DHT22;13348;50.984;5.822;2022-10-03T11:52:12;21.50;99.90
24448;DHT22;13348;50.984;5.822;2022-10-03T11:54:45;21.90;99.90
24448;DHT22;13348;50.984;5.822;2022-10-03T11:57:19;21.10;99.90
24448;DHT22;13348;50.984;5.822;2022-10-03T11:59:58;21.70;99.90
24448;DHT22;13348;50.984;5.822;2022-10-03T12:02:50;22.40;99.90
24448;DHT22;13348;50.984;5.822;2022-10-03T12:05:27;20.90;99.90
24448;DHT22;13348;50.984;5.822;2022-10-03T12:08:10;19.00;99.90
24448;DHT22;13348;50.984;5.822;2022-10-03T12:11:05;19.40;99.90
24448;DHT22;13348;50.984;5.822;2022-10-03T12:13:50;19.90;99.90
24448;DHT22;13348;50.984;5.822;2022-10-03T12:16:24;19.60;99.90
24448;DHT22;13348;50.984;5.822;2022-10-03T12:18:57;19.70;99.90
24448;DHT22;13348;50.984;5.822;2022-10-03T12:21:38;20.10;99.90
24448;DHT22;13348;50.984;5.822;2022-10-03T12:24:16;20.90;99.90
24448;DHT22;13348;50.984;5.822;2022-10-03T12:26:53;19.70;99.90
24448;DHT22;13348;50.984;5.822;2022-10-03T12:29:25;19.40;99.90
24448;DHT22;13348;50.984;5.822;2022-10-03T12:34:48;20.90;99.90
24448;DHT22;13348;50.984;5.822;2022-10-03T12:37:34;21.50;99.90
24448;DHT22;13348;50.984;5.822;2022-10-03T12:40:14;21.70;99.90
24448;DHT22;13348;50.984;5.822;2022-10-03T12:42:47;20.40;99.90
24448;DHT22;13348;50.984;5.822;2022-10-03T12:45:23;19.40;99.90
24448;DHT22;13348;50.984;5.822;2022-10-03T12:50:52;20.40;99.90
24448;DHT22;13348;50.984;5.822;2022-10-03T12:53:33;20.30;99.90
24448;DHT22;13348;50.984;5.822;2022-10-03T12:56:06;20.30;99.90
24448;DHT22;13348;50.984;5.822;2022-10-03T12:58:50;19.10;99.90
24448;DHT22;13348;50.984;5.822;2022-10-03T13:01:25;19.30;99.90
24448;DHT22;13348;50.984;5.822;2022-10-03T13:03:57;19.10;99.90
24448;DHT22;13348;50.984;5.822;2022-10-03T13:09:28;19.60;99.90
24448;DHT22;13348;50.984;5.822;2022-10-03T13:12:02;19.70;99.90
24448;DHT22;13348;50.984;5.822;2022-10-03T13:15:32;19.80;99.90
24448;DHT22;13348;50.984;5.822;2022-10-03T13:21:05;20.20;99.90
24448;DHT22;13348;50.984;5.822;2022-10-03T13:23:43;20.00;99.90
24448;DHT22;13348;50.984;5.822;2022-10-03T13:26:16;19.60;99.90
24448;DHT22;13348;50.984;5.822;2022-10-03T13:29:07;20.20;99.90
24448;DHT22;13348;50.984;5.822;2022-10-03T13:31:52;20.70;99.90
24448;DHT22;13348;50.984;5.822;2022-10-03T13:34:25;20.60;99.90
24448;DHT22;13348;50.984;5.822;2022-10-03T13:36:56;20.00;99.90
24448;DHT22;13348;50.984;5.822;2022-10-03T13:39:28;19.00;99.90
24448;DHT22;13348;50.984;5.822;2022-10-03T13:42:12;19.20;99.90
24448;DHT22;13348;50.984;5.822;2022-10-03T13:44:48;19.20;99.90
24448;DHT22;13348;50.984;5.822;2022-10-03T13:47:43;19.70;99.90
24448;DHT22;13348;50.984;5.822;2022-10-03T13:50:17;20.40;99.90
24448;DHT22;13348;50.984;5.822;2022-10-03T13:52:51;21.00;99.90
24448;DHT22;13348;50.984;5.822;2022-10-03T13:55:39;20.80;99.90
24448;DHT22;13348;50.984;5.822;2022-10-03T13:58:30;20.40;99.90
24448;DHT22;13348;50.984;5.822;2022-10-03T14:01:16;20.60;99.90
24448;DHT22;13348;50.984;5.822;2022-10-03T14:06:44;20.90;99.90
24448;DHT22;13348;50.984;5.822;2022-10-03T14:09:33;19.60;99.90
24448;DHT22;13348;50.984;5.822;2022-10-03T14:12:11;18.90;99.90
24448;DHT22;13348;50.984;5.822;2022-10-03T14:15:12;18.40;99.90
24448;DHT22;13348;50.984;5.822;2022-10-03T14:17:49;18.50;99.90
24448;DHT22;13348;50.984;5.822;2022-10-03T14:20:25;19.20;99.90
24448;DHT22;13348;50.984;5.822;2022-10-03T14:23:12;20.00;99.90
24448;DHT22;13348;50.984;5.822;2022-10-03T14:25:46;19.20;99.90
24448;DHT22;13348;50.984;5.822;2022-10-03T14:28:21;18.60;99.90
24448;DHT22;13348;50.984;5.822;2022-10-03T14:30:59;18.70;99.90
24448;DHT22;13348;50.984;5.822;2022-10-03T14:33:36;18.30;99.90
24448;DHT22;13348;50.984;5.822;2022-10-03T14:36:24;18.30;99.90
24448;DHT22;13348;50.984;5.822;2022-10-03T14:39:31;18.50;99.90
24448;DHT22;13348;50.984;5.822;2022-10-03T14:42:28;18.40;99.90
24448;DHT22;13348;50.984;5.822;2022-10-03T14:44:59;18.70;99.90
24448;DHT22;13348;50.984;5.822;2022-10-03T14:47:34;18.50;99.90
24448;DHT22;13348;50.984;5.822;2022-10-03T14:50:03;18.10;99.90
24448;DHT22;13348;50.984;5.822;2022-10-03T14:52:37;17.70;99.90
24448;DHT22;13348;50.984;5.822;2022-10-03T14:55:12;18.10;99.90
24448;DHT22;13348;50.984;5.822;2022-10-03T14:57:44;17.50;99.90
24448;DHT22;13348;50.984;5.822;2022-10-03T15:00:24;17.30;99.90
24448;DHT22;13348;50.984;5.822;2022-10-03T15:02:52;17.20;99.90
24448;DHT22;13348;50.984;5.822;2022-10-03T15:05:21;17.20;99.90
24448;DHT22;13348;50.984;5.822;2022-10-03T15:08:01;17.10;99.90
24448;DHT22;13348;50.984;5.822;2022-10-03T15:10:30;17.20;99.90
24448;DHT22;13348;50.984;5.822;2022-10-03T15:13:07;17.20;99.90
24448;DHT22;13348;50.984;5.822;2022-10-03T15:15:37;17.50;99.90
24448;DHT22;13348;50.984;5.822;2022-10-03T15:18:13;17.40;99.90
24448;DHT22;13348;50.984;5.822;2022-10-03T15:20:43;17.60;99.90
24448;DHT22;13348;50.984;5.822;2022-10-03T15:23:20;17.50;99.90
24448;DHT22;13348;50.984;5.822;2022-10-03T15:25:50;17.50;99.90
24448;DHT22;13348;50.984;5.822;2022-10-03T15:28:21;17.40;99.90
24448;DHT22;13348;50.984;5.822;2022-10-03T15:30:53;17.30;99.90
24448;DHT22;13348;50.984;5.822;2022-10-03T15:33:27;17.20;99.90
24448;DHT22;13348;50.984;5.822;2022-10-03T15:36:00;17.10;99.90
24448;DHT22;13348;50.984;5.822;2022-10-03T15:38:37;17.00;99.90
24448;DHT22;13348;50.984;5.822;2022-10-03T15:41:08;16.90;99.90
24448;DHT22;13348;50.984;5.822;2022-10-03T15:43:42;16.90;99.90
24448;DHT22;13348;50.984;5.822;2022-10-03T15:46:25;16.80;99.90
24448;DHT22;13348;50.984;5.822;2022-10-03T15:48:54;16.80;99.90
24448;DHT22;13348;50.984;5.822;2022-10-03T15:51:27;16.70;99.90
24448;DHT22;13348;50.984;5.822;2022-10-03T15:53:58;16.70;99.90
24448;DHT22;13348;50.984;5.822;2022-10-03T15:56:32;16.70;99.90
24448;DHT22;13348;50.984;5.822;2022-10-03T15:59:07;16.60;99.90
24448;DHT22;13348;50.984;5.822;2022-10-03T16:01:38;16.60;99.90
24448;DHT22;13348;50.984;5.822;2022-10-03T16:04:11;16.50;99.90
24448;DHT22;13348;50.984;5.822;2022-10-03T16:06:44;16.40;99.90
24448;DHT22;13348;50.984;5.822;2022-10-03T16:09:22;16.50;99.90
24448;DHT22;13348;50.984;5.822;2022-10-03T16:11:59;16.40;99.90
24448;DHT22;13348;50.984;5.822;2022-10-03T16:14:38;16.30;99.90
24448;DHT22;13348;50.984;5.822;2022-10-03T16:17:14;16.30;99.90
24448;DHT22;13348;50.984;5.822;2022-10-03T16:19:49;16.20;99.90
24448;DHT22;13348;50.984;5.822;2022-10-03T16:22:21;16.20;99.90
24448;DHT22;13348;50.984;5.822;2022-10-03T16:25:07;16.30;99.90
24448;DHT22;13348;50.984;5.822;2022-10-03T16:27:38;16.40;99.90
24448;DHT22;13348;50.984;5.822;2022-10-03T16:30:20;16.40;99.90
24448;DHT22;13348;50.984;5.822;2022-10-03T16:32:53;16.30;99.90
24448;DHT22;13348;50.984;5.822;2022-10-03T16:35:33;16.20;99.90
24448;DHT22;13348;50.984;5.822;2022-10-03T16:38:07;16.20;99.90
24448;DHT22;13348;50.984;5.822;2022-10-03T16:40:36;16.10;99.90
24448;DHT22;13348;50.984;5.822;2022-10-03T16:43:04;16.00;99.90
24448;DHT22;13348;50.984;5.822;2022-10-03T16:45:40;15.90;99.90
24448;DHT22;13348;50.984;5.822;2022-10-03T16:48:12;15.80;99.90
24448;DHT22;13348;50.984;5.822;2022-10-03T16:51:00;15.70;99.90
24448;DHT22;13348;50.984;5.822;2022-10-03T16:53:29;15.50;99.90
24448;DHT22;13348;50.984;5.822;2022-10-03T16:56:03;15.30;99.90
24448;DHT22;13348;50.984;5.822;2022-10-03T16:58:34;15.00;99.90
24448;DHT22;13348;50.984;5.822;2022-10-03T17:01:08;14.90;99.90
24448;DHT22;13348;50.984;5.822;2022-10-03T17:03:42;14.60;99.90
24448;DHT22;13348;50.984;5.822;2022-10-03T17:06:18;14.40;99.90
24448;DHT22;13348;50.984;5.822;2022-10-03T17:08:50;14.10;99.90
24448;DHT22;13348;50.984;5.822;2022-10-03T17:11:21;13.70;99.90
24448;DHT22;13348;50.984;5.822;2022-10-03T17:13:53;13.50;99.90
24448;DHT22;13348;50.984;5.822;2022-10-03T17:16:28;13.20;99.90
24448;DHT22;13348;50.984;5.822;2022-10-03T17:19:11;13.00;99.90
24448;DHT22;13348;50.984;5.822;2022-10-03T17:21:45;12.90;99.90
24448;DHT22;13348;50.984;5.822;2022-10-03T17:24:23;12.70;99.90
24448;DHT22;13348;50.984;5.822;2022-10-03T17:26:59;12.60;99.90
24448;DHT22;13348;50.984;5.822;2022-10-03T17:29:33;12.70;99.90
24448;DHT22;13348;50.984;5.822;2022-10-03T17:32:08;12.70;99.90
24448;DHT22;13348;50.984;5.822;2022-10-03T17:34:40;12.70;99.90
24448;DHT22;13348;50.984;5.822;2022-10-03T17:40:17;12.50;99.90
24448;DHT22;13348;50.984;5.822;2022-10-03T17:42:52;12.30;99.90
24448;DHT22;13348;50.984;5.822;2022-10-03T17:45:40;12.10;99.90
24448;DHT22;13348;50.984;5.822;2022-10-03T17:48:12;12.00;99.90
24448;DHT22;13348;50.984;5.822;2022-10-03T17:50:52;11.90;99.90
24448;DHT22;13348;50.984;5.822;2022-10-03T17:53:21;11.90;99.90
24448;DHT22;13348;50.984;5.822;2022-10-03T17:55:53;11.80;99.90
24448;DHT22;13348;50.984;5.822;2022-10-03T17:58:24;11.80;99.90
24448;DHT22;13348;50.984;5.822;2022-10-03T18:01:00;11.70;99.90
24448;DHT22;13348;50.984;5.822;2022-10-03T18:03:33;11.90;99.90
24448;DHT22;13348;50.984;5.822;2022-10-03T18:06:29;11.80;99.90
24448;DHT22;13348;50.984;5.822;2022-10-03T18:08:50;11.70;99.90
24448;DHT22;13348;50.984;5.822;2022-10-03T18:11:21;11.70;99.90
24448;DHT22;13348;50.984;5.822;2022-10-03T18:13:52;11.50;99.90
24448;DHT22;13348;50.984;5.822;2022-10-03T18:16:30;11.50;99.90
24448;DHT22;13348;50.984;5.822;2022-10-03T18:19:08;11.50;99.90
24448;DHT22;13348;50.984;5.822;2022-10-03T18:21:54;11.60;99.90
24448;DHT22;13348;50.984;5.822;2022-10-03T18:24:39;11.80;99.90
24448;DHT22;13348;50.984;5.822;2022-10-03T18:27:37;11.60;99.90
24448;DHT22;13348;50.984;5.822;2022-10-03T18:30:15;11.50;99.90
24448;DHT22;13348;50.984;5.822;2022-10-03T18:32:44;11.50;99.90
24448;DHT22;13348;50.984;5.822;2022-10-03T18:35:14;11.60;99.90
24448;DHT22;13348;50.984;5.822;2022-10-03T18:38:18;11.70;99.90
24448;DHT22;13348;50.984;5.822;2022-10-03T18:40:51;11.60;99.90
24448;DHT22;13348;50.984;5.822;2022-10-03T18:43:32;11.60;99.90
24448;DHT22;13348;50.984;5.822;2022-10-03T18:46:12;11.60;99.90
24448;DHT22;13348;50.984;5.822;2022-10-03T18:48:45;11.60;99.90
24448;DHT22;13348;50.984;5.822;2022-10-03T18:51:20;11.60;99.90
24448;DHT22;13348;50.984;5.822;2022-10-03T18:53:55;11.40;99.90
24448;DHT22;13348;50.984;5.822;2022-10-03T18:56:25;11.40;99.90
24448;DHT22;13348;50.984;5.822;2022-10-03T18:59:14;11.40;99.90
24448;DHT22;13348;50.984;5.822;2022-10-03T19:01:48;11.20;99.90
24448;DHT22;13348;50.984;5.822;2022-10-03T19:04:31;11.10;99.90
24448;DHT22;13348;50.984;5.822;2022-10-03T19:07:02;11.10;99.90
24448;DHT22;13348;50.984;5.822;2022-10-03T19:09:40;11.10;99.90
24448;DHT22;13348;50.984;5.822;2022-10-03T19:12:13;11.00;99.90
24448;DHT22;13348;50.984;5.822;2022-10-03T19:14:54;10.80;99.90
24448;DHT22;13348;50.984;5.822;2022-10-03T19:17:32;10.80;99.90
24448;DHT22;13348;50.984;5.822;2022-10-03T19:20:16;10.90;99.90
24448;DHT22;13348;50.984;5.822;2022-10-03T19:22:53;10.90;99.90
24448;DHT22;13348;50.984;5.822;2022-10-03T19:25:22;11.00;99.90
24448;DHT22;13348;50.984;5.822;2022-10-03T19:27:53;10.90;99.90
24448;DHT22;13348;50.984;5.822;2022-10-03T19:30:24;10.90;99.90
24448;DHT22;13348;50.984;5.822;2022-10-03T19:32:56;11.00;99.90
24448;DHT22;13348;50.984;5.822;2022-10-03T19:35:24;10.90;99.90
24448;DHT22;13348;50.984;5.822;2022-10-03T19:37:54;10.80;99.90
24448;DHT22;13348;50.984;5.822;2022-10-03T19:40:40;10.60;99.90
24448;DHT22;13348;50.984;5.822;2022-10-03T19:43:30;10.50;99.90
24448;DHT22;13348;50.984;5.822;2022-10-03T19:49:20;10.30;99.90
24448;DHT22;13348;50.984;5.822;2022-10-03T19:51:48;10.40;99.90
24448;DHT22;13348;50.984;5.822;2022-10-03T19:54:27;10.40;99.90
24448;DHT22;13348;50.984;5.822;2022-10-03T19:56:57;10.30;99.90
24448;DHT22;13348;50.984;5.822;2022-10-03T19:59:43;10.50;99.90
24448;DHT22;13348;50.984;5.822;2022-10-03T20:02:11;10.70;99.90
24448;DHT22;13348;50.984;5.822;2022-10-03T20:04:40;10.50;99.90
24448;DHT22;13348;50.984;5.822;2022-10-03T20:07:13;10.40;99.90
24448;DHT22;13348;50.984;5.822;2022-10-03T20:09:54;10.30;99.90
24448;DHT22;13348;50.984;5.822;2022-10-03T20:12:24;10.20;99.90
24448;DHT22;13348;50.984;5.822;2022-10-03T20:14:52;10.30;99.90
24448;DHT22;13348;50.984;5.822;2022-10-03T20:17:21;10.30;99.90
24448;DHT22;13348;50.984;5.822;2022-10-03T20:19:52;10.30;99.90
24448;DHT22;13348;50.984;5.822;2022-10-03T20:22:21;10.50;99.90
24448;DHT22;13348;50.984;5.822;2022-10-03T20:24:50;10.60;99.90
24448;DHT22;13348;50.984;5.822;2022-10-03T20:27:30;10.90;99.90
24448;DHT22;13348;50.984;5.822;2022-10-03T20:30:06;11.00;99.90
24448;DHT22;13348;50.984;5.822;2022-10-03T20:32:37;11.00;99.90
24448;DHT22;13348;50.984;5.822;2022-10-03T20:35:13;11.00;99.90
24448;DHT22;13348;50.984;5.822;2022-10-03T20:37:47;10.90;99.90
24448;DHT22;13348;50.984;5.822;2022-10-03T20:40:24;10.90;99.90
24448;DHT22;13348;50.984;5.822;2022-10-03T20:43:06;10.90;99.90
24448;DHT22;13348;50.984;5.822;2022-10-03T20:45:39;10.80;99.90
24448;DHT22;13348;50.984;5.822;2022-10-03T20:48:09;10.80;99.90
24448;DHT22;13348;50.984;5.822;2022-10-03T20:50:43;10.70;99.90